sensor_id;sensor_type;location;lat;lon;timestamp;temperature;humidity
26254;DHT22;53339;51.378;0.094;2023-04-03T00:01:38;3.50;81.30
26254;DHT22;53339;51.378;0.094;2023-04-03T00:04:06;3.60;81.50
26254;DHT22;53339;51.378;0.094;2023-04-03T00:06:36;3.50;81.00
26254;DHT22;53339;51.378;0.094;2023-04-03T00:09:11;3.40;81.00
26254;DHT22;53339;51.378;0.094;2023-04-03T00:11:43;3.50;81.60
26254;DHT22;53339;51.378;0.094;2023-04-03T00:14:12;3.50;81.70
26254;DHT22;53339;51.378;0.094;2023-04-03T00:16:41;3.40;81.30
26254;DHT22;53339;51.378;0.094;2023-04-03T00:19:09;3.40;81.20
26254;DHT22;53339;51.378;0.094;2023-04-03T00:21:48;3.40;81.70
26254;DHT22;53339;51.378;0.094;2023-04-03T00:24:20;3.40;81.90
26254;DHT22;53339;51.378;0.094;2023-04-03T00:26:51;3.30;81.30
26254;DHT22;53339;51.378;0.094;2023-04-03T00:29:27;3.20;81.40
26254;DHT22;53339;51.378;0.094;2023-04-03T00:32:02;3.20;82.00
26254;DHT22;53339;51.378;0.094;2023-04-03T00:34:34;3.30;82.10
26254;DHT22;53339;51.378;0.094;2023-04-03T00:37:04;3.10;81.60
26254;DHT22;53339;51.378;0.094;2023-04-03T00:39:33;3.00;81.70
26254;DHT22;53339;51.378;0.094;2023-04-03T00:42:01;3.10;82.30
26254;DHT22;53339;51.378;0.094;2023-04-03T00:47:05;3.10;82.00
26254;DHT22;53339;51.378;0.094;2023-04-03T00:49:45;3.00;82.10
26254;DHT22;53339;51.378;0.094;2023-04-03T00:52:17;3.10;82.60
26254;DHT22;53339;51.378;0.094;2023-04-03T00:54:50;3.10;82.60
26254;DHT22;53339;51.378;0.094;2023-04-03T00:57:22;2.90;82.10
26254;DHT22;53339;51.378;0.094;2023-04-03T00:59:55;2.80;82.30
26254;DHT22;53339;51.378;0.094;2023-04-03T01:02:25;2.90;82.90
26254;DHT22;53339;51.378;0.094;2023-04-03T01:04:57;3.00;82.90
26254;DHT22;53339;51.378;0.094;2023-04-03T01:07:30;2.90;82.50
26254;DHT22;53339;51.378;0.094;2023-04-03T01:10:06;2.80;82.60
26254;DHT22;53339;51.378;0.094;2023-04-03T01:12:37;2.80;83.10
26254;DHT22;53339;51.378;0.094;2023-04-03T01:15:16;2.90;83.10
26254;DHT22;53339;51.378;0.094;2023-04-03T01:17:48;2.70;82.60
26254;DHT22;53339;51.378;0.094;2023-04-03T01:25:52;2.70;83.20
26254;DHT22;53339;51.378;0.094;2023-04-03T01:28:25;2.60;82.80
26254;DHT22;53339;51.378;0.094;2023-04-03T01:33:39;2.60;83.60
26254;DHT22;53339;51.378;0.094;2023-04-03T01:36:13;2.60;83.40
26254;DHT22;53339;51.378;0.094;2023-04-03T01:38:43;2.50;83.10
26254;DHT22;53339;51.378;0.094;2023-04-03T01:41:13;2.50;83.50
26254;DHT22;53339;51.378;0.094;2023-04-03T01:43:43;2.60;83.70
26254;DHT22;53339;51.378;0.094;2023-04-03T01:46:13;2.60;83.50
26254;DHT22;53339;51.378;0.094;2023-04-03T01:48:42;2.50;83.20
26254;DHT22;53339;51.378;0.094;2023-04-03T01:51:11;2.40;83.50
26254;DHT22;53339;51.378;0.094;2023-04-03T01:53:43;2.50;83.70
26254;DHT22;53339;51.378;0.094;2023-04-03T01:56:15;2.50;83.50
26254;DHT22;53339;51.378;0.094;2023-04-03T01:58:45;2.30;83.30
26254;DHT22;53339;51.378;0.094;2023-04-03T02:01:14;2.40;83.60
26254;DHT22;53339;51.378;0.094;2023-04-03T02:03:44;2.40;83.80
26254;DHT22;53339;51.378;0.094;2023-04-03T02:06:19;2.40;83.60
26254;DHT22;53339;51.378;0.094;2023-04-03T02:08:48;2.30;83.30
26254;DHT22;53339;51.378;0.094;2023-04-03T02:11:18;2.20;83.60
26254;DHT22;53339;51.378;0.094;2023-04-03T02:13:47;2.30;83.90
26254;DHT22;53339;51.378;0.094;2023-04-03T02:16:16;2.20;83.70
26254;DHT22;53339;51.378;0.094;2023-04-03T02:18:45;2.20;83.60
26254;DHT22;53339;51.378;0.094;2023-04-03T02:21:14;2.10;83.80
26254;DHT22;53339;51.378;0.094;2023-04-03T02:23:44;2.20;84.10
26254;DHT22;53339;51.378;0.094;2023-04-03T02:26:15;2.20;83.90
26254;DHT22;53339;51.378;0.094;2023-04-03T02:28:46;2.00;83.60
26254;DHT22;53339;51.378;0.094;2023-04-03T02:31:14;1.90;83.90
26254;DHT22;53339;51.378;0.094;2023-04-03T02:33:46;2.00;84.10
26254;DHT22;53339;51.378;0.094;2023-04-03T02:36:16;1.90;84.00
26254;DHT22;53339;51.378;0.094;2023-04-03T02:38:53;1.70;83.70
26254;DHT22;53339;51.378;0.094;2023-04-03T02:41:21;1.70;84.00
26254;DHT22;53339;51.378;0.094;2023-04-03T02:43:51;1.80;84.30
26254;DHT22;53339;51.378;0.094;2023-04-03T02:46:22;1.80;84.20
26254;DHT22;53339;51.378;0.094;2023-04-03T02:48:55;1.70;83.90
26254;DHT22;53339;51.378;0.094;2023-04-03T02:51:24;1.70;84.20
26254;DHT22;53339;51.378;0.094;2023-04-03T02:53:59;1.70;84.50
26254;DHT22;53339;51.378;0.094;2023-04-03T02:56:33;1.70;84.40
26254;DHT22;53339;51.378;0.094;2023-04-03T02:59:03;1.60;84.20
26254;DHT22;53339;51.378;0.094;2023-04-03T03:01:36;1.70;84.50
26254;DHT22;53339;51.378;0.094;2023-04-03T03:04:05;1.70;84.50
26254;DHT22;53339;51.378;0.094;2023-04-03T03:06:35;1.70;84.40
26254;DHT22;53339;51.378;0.094;2023-04-03T03:09:07;1.80;84.50
26254;DHT22;53339;51.378;0.094;2023-04-03T03:11:48;1.80;84.50
26254;DHT22;53339;51.378;0.094;2023-04-03T03:14:21;1.80;84.40
26254;DHT22;53339;51.378;0.094;2023-04-03T03:16:51;1.60;84.10
26254;DHT22;53339;51.378;0.094;2023-04-03T03:19:21;1.50;84.10
26254;DHT22;53339;51.378;0.094;2023-04-03T03:21:54;1.50;84.40
26254;DHT22;53339;51.378;0.094;2023-04-03T03:24:23;1.50;84.50
26254;DHT22;53339;51.378;0.094;2023-04-03T03:26:55;1.30;84.20
26254;DHT22;53339;51.378;0.094;2023-04-03T03:29:25;1.20;84.20
26254;DHT22;53339;51.378;0.094;2023-04-03T03:31:56;1.20;84.60
26254;DHT22;53339;51.378;0.094;2023-04-03T03:34:34;1.20;84.60
26254;DHT22;53339;51.378;0.094;2023-04-03T03:37:03;1.00;84.10
26254;DHT22;53339;51.378;0.094;2023-04-03T03:39:33;0.90;84.20
26254;DHT22;53339;51.378;0.094;2023-04-03T03:42:01;0.90;84.60
26254;DHT22;53339;51.378;0.094;2023-04-03T03:44:31;0.90;84.70
26254;DHT22;53339;51.378;0.094;2023-04-03T03:47:05;0.80;84.40
26254;DHT22;53339;51.378;0.094;2023-04-03T03:49:38;0.70;84.40
26254;DHT22;53339;51.378;0.094;2023-04-03T03:52:07;0.70;84.70
26254;DHT22;53339;51.378;0.094;2023-04-03T03:54:38;0.70;84.70
26254;DHT22;53339;51.378;0.094;2023-04-03T03:57:07;0.70;84.60
26254;DHT22;53339;51.378;0.094;2023-04-03T03:59:37;0.70;84.70
26254;DHT22;53339;51.378;0.094;2023-04-03T04:02:14;0.90;85.00
26254;DHT22;53339;51.378;0.094;2023-04-03T04:04:48;0.90;85.00
26254;DHT22;53339;51.378;0.094;2023-04-03T04:07:18;1.00;84.90
26254;DHT22;53339;51.378;0.094;2023-04-03T04:09:52;1.00;84.90
26254;DHT22;53339;51.378;0.094;2023-04-03T04:12:26;1.10;85.00
26254;DHT22;53339;51.378;0.094;2023-04-03T04:14:58;1.20;85.00
26254;DHT22;53339;51.378;0.094;2023-04-03T04:17:30;1.20;84.80
26254;DHT22;53339;51.378;0.094;2023-04-03T04:19:59;1.30;84.80
26254;DHT22;53339;51.378;0.094;2023-04-03T04:22:31;1.30;84.90
26254;DHT22;53339;51.378;0.094;2023-04-03T04:25:03;1.30;84.70
26254;DHT22;53339;51.378;0.094;2023-04-03T04:27:34;1.30;84.50
26254;DHT22;53339;51.378;0.094;2023-04-03T04:30:10;1.30;84.60
26254;DHT22;53339;51.378;0.094;2023-04-03T04:32:39;1.40;84.80
26254;DHT22;53339;51.378;0.094;2023-04-03T04:35:08;1.40;84.50
26254;DHT22;53339;51.378;0.094;2023-04-03T04:37:43;1.30;84.10
26254;DHT22;53339;51.378;0.094;2023-04-03T04:40:12;1.20;84.30
26254;DHT22;53339;51.378;0.094;2023-04-03T04:42:42;1.30;84.50
26254;DHT22;53339;51.378;0.094;2023-04-03T04:45:12;1.30;84.40
26254;DHT22;53339;51.378;0.094;2023-04-03T04:47:45;1.30;84.30
26254;DHT22;53339;51.378;0.094;2023-04-03T04:50:15;1.30;84.40
26254;DHT22;53339;51.378;0.094;2023-04-03T04:52:46;1.40;84.60
26254;DHT22;53339;51.378;0.094;2023-04-03T04:55:16;1.40;84.60
26254;DHT22;53339;51.378;0.094;2023-04-03T04:57:50;1.50;84.50
26254;DHT22;53339;51.378;0.094;2023-04-03T05:00:21;1.50;84.60
26254;DHT22;53339;51.378;0.094;2023-04-03T05:02:54;1.60;84.60
26254;DHT22;53339;51.378;0.094;2023-04-03T05:05:28;1.70;84.60
26254;DHT22;53339;51.378;0.094;2023-04-03T05:07:58;1.70;84.40
26254;DHT22;53339;51.378;0.094;2023-04-03T05:10:35;1.70;84.40
26254;DHT22;53339;51.378;0.094;2023-04-03T05:13:04;1.80;84.40
26254;DHT22;53339;51.378;0.094;2023-04-03T05:15:33;1.80;84.20
26254;DHT22;53339;51.378;0.094;2023-04-03T05:18:06;1.70;84.10
26254;DHT22;53339;51.378;0.094;2023-04-03T05:20:39;1.70;84.30
26254;DHT22;53339;51.378;0.094;2023-04-03T05:23:11;1.80;84.40
26254;DHT22;53339;51.378;0.094;2023-04-03T05:25:43;1.90;84.40
26254;DHT22;53339;51.378;0.094;2023-04-03T05:28:18;1.80;84.20
26254;DHT22;53339;51.378;0.094;2023-04-03T05:30:54;1.90;84.30
26254;DHT22;53339;51.378;0.094;2023-04-03T05:33:32;1.90;84.40
26254;DHT22;53339;51.378;0.094;2023-04-03T05:36:06;2.00;84.50
26254;DHT22;53339;51.378;0.094;2023-04-03T05:38:41;2.10;84.60
26254;DHT22;53339;51.378;0.094;2023-04-03T05:41:17;2.20;84.60
26254;DHT22;53339;51.378;0.094;2023-04-03T05:43:47;2.30;84.70
26254;DHT22;53339;51.378;0.094;2023-04-03T05:46:21;2.40;84.60
26254;DHT22;53339;51.378;0.094;2023-04-03T05:48:55;2.40;84.60
26254;DHT22;53339;51.378;0.094;2023-04-03T05:51:35;2.50;84.60
26254;DHT22;53339;51.378;0.094;2023-04-03T05:54:17;2.50;84.50
26254;DHT22;53339;51.378;0.094;2023-04-03T05:56:48;2.60;84.60
26254;DHT22;53339;51.378;0.094;2023-04-03T05:59:21;2.60;84.60
26254;DHT22;53339;51.378;0.094;2023-04-03T06:01:52;2.70;84.60
26254;DHT22;53339;51.378;0.094;2023-04-03T06:04:21;2.80;84.60
26254;DHT22;53339;51.378;0.094;2023-04-03T06:06:59;2.90;84.60
26254;DHT22;53339;51.378;0.094;2023-04-03T06:09:29;3.00;84.60
26254;DHT22;53339;51.378;0.094;2023-04-03T06:12:00;3.10;84.60
26254;DHT22;53339;51.378;0.094;2023-04-03T06:14:30;3.10;84.50
26254;DHT22;53339;51.378;0.094;2023-04-03T06:17:02;3.20;84.50
26254;DHT22;53339;51.378;0.094;2023-04-03T06:19:32;3.30;84.40
26254;DHT22;53339;51.378;0.094;2023-04-03T06:22:01;3.30;84.40
26254;DHT22;53339;51.378;0.094;2023-04-03T06:24:31;3.40;84.40
26254;DHT22;53339;51.378;0.094;2023-04-03T06:27:01;3.30;84.10
26254;DHT22;53339;51.378;0.094;2023-04-03T06:29:33;3.30;84.20
26254;DHT22;53339;51.378;0.094;2023-04-03T06:32:05;3.30;84.20
26254;DHT22;53339;51.378;0.094;2023-04-03T06:34:43;3.30;84.10
26254;DHT22;53339;51.378;0.094;2023-04-03T06:37:20;3.20;84.10
26254;DHT22;53339;51.378;0.094;2023-04-03T06:39:52;3.30;84.20
26254;DHT22;53339;51.378;0.094;2023-04-03T06:42:31;3.30;84.30
26254;DHT22;53339;51.378;0.094;2023-04-03T06:45:07;3.40;84.30
26254;DHT22;53339;51.378;0.094;2023-04-03T06:47:36;3.40;84.40
26254;DHT22;53339;51.378;0.094;2023-04-03T06:50:05;3.60;84.50
26254;DHT22;53339;51.378;0.094;2023-04-03T06:52:35;3.70;84.50
26254;DHT22;53339;51.378;0.094;2023-04-03T06:55:05;3.80;84.60
26254;DHT22;53339;51.378;0.094;2023-04-03T06:57:34;4.00;84.60
26254;DHT22;53339;51.378;0.094;2023-04-03T07:00:05;4.20;84.40
26254;DHT22;53339;51.378;0.094;2023-04-03T07:02:38;4.30;84.10
26254;DHT22;53339;51.378;0.094;2023-04-03T07:05:07;4.30;83.90
26254;DHT22;53339;51.378;0.094;2023-04-03T07:07:38;4.30;83.80
26254;DHT22;53339;51.378;0.094;2023-04-03T07:10:20;4.30;83.80
26254;DHT22;53339;51.378;0.094;2023-04-03T07:12:52;4.30;83.80
26254;DHT22;53339;51.378;0.094;2023-04-03T07:15:23;4.30;83.70
26254;DHT22;53339;51.378;0.094;2023-04-03T07:17:53;4.20;83.70
26254;DHT22;53339;51.378;0.094;2023-04-03T07:20:26;4.20;83.70
26254;DHT22;53339;51.378;0.094;2023-04-03T07:22:57;4.20;83.80
26254;DHT22;53339;51.378;0.094;2023-04-03T07:25:26;4.20;83.90
26254;DHT22;53339;51.378;0.094;2023-04-03T07:27:55;4.20;84.00
26254;DHT22;53339;51.378;0.094;2023-04-03T07:30:31;4.40;84.20
26254;DHT22;53339;51.378;0.094;2023-04-03T07:33:00;4.60;84.30
26254;DHT22;53339;51.378;0.094;2023-04-03T07:35:30;4.80;84.20
26254;DHT22;53339;51.378;0.094;2023-04-03T07:38:01;5.00;84.20
26254;DHT22;53339;51.378;0.094;2023-04-03T07:40:31;5.10;84.10
26254;DHT22;53339;51.378;0.094;2023-04-03T07:43:00;5.20;83.90
26254;DHT22;53339;51.378;0.094;2023-04-03T07:45:34;5.30;83.70
26254;DHT22;53339;51.378;0.094;2023-04-03T07:48:03;5.30;83.70
26254;DHT22;53339;51.378;0.094;2023-04-03T07:50:31;5.40;83.70
26254;DHT22;53339;51.378;0.094;2023-04-03T07:53:03;5.50;83.60
26254;DHT22;53339;51.378;0.094;2023-04-03T07:55:38;5.50;83.40
26254;DHT22;53339;51.378;0.094;2023-04-03T07:58:16;5.60;83.40
26254;DHT22;53339;51.378;0.094;2023-04-03T08:00:44;5.60;83.40
26254;DHT22;53339;51.378;0.094;2023-04-03T08:03:14;5.70;83.40
26254;DHT22;53339;51.378;0.094;2023-04-03T08:05:46;5.70;83.30
26254;DHT22;53339;51.378;0.094;2023-04-03T08:08:18;5.70;83.40
26254;DHT22;53339;51.378;0.094;2023-04-03T08:10:54;5.90;83.40
26254;DHT22;53339;51.378;0.094;2023-04-03T08:13:25;6.00;83.40
26254;DHT22;53339;51.378;0.094;2023-04-03T08:15:55;6.00;83.30
26254;DHT22;53339;51.378;0.094;2023-04-03T08:18:25;6.10;83.20
26254;DHT22;53339;51.378;0.094;2023-04-03T08:20:55;6.20;83.20
26254;DHT22;53339;51.378;0.094;2023-04-03T08:23:26;6.30;83.20
26254;DHT22;53339;51.378;0.094;2023-04-03T08:25:58;6.30;83.10
26254;DHT22;53339;51.378;0.094;2023-04-03T08:28:27;6.40;83.10
26254;DHT22;53339;51.378;0.094;2023-04-03T08:30:55;6.50;83.10
26254;DHT22;53339;51.378;0.094;2023-04-03T08:33:23;6.50;83.10
26254;DHT22;53339;51.378;0.094;2023-04-03T08:35:56;6.60;82.90
26254;DHT22;53339;51.378;0.094;2023-04-03T08:38:26;6.60;82.90
26254;DHT22;53339;51.378;0.094;2023-04-03T08:41:15;6.70;83.00
26254;DHT22;53339;51.378;0.094;2023-04-03T08:49:28;7.00;82.90
26254;DHT22;53339;51.378;0.094;2023-04-03T08:52:02;7.10;82.80
26254;DHT22;53339;51.378;0.094;2023-04-03T08:54:40;7.20;82.70
26254;DHT22;53339;51.378;0.094;2023-04-03T08:57:28;7.30;82.70
26254;DHT22;53339;51.378;0.094;2023-04-03T09:00:37;7.40;82.70
26254;DHT22;53339;51.378;0.094;2023-04-03T09:03:12;7.50;82.70
26254;DHT22;53339;51.378;0.094;2023-04-03T09:14:34;8.10;82.40
26254;DHT22;53339;51.378;0.094;2023-04-03T09:22:48;8.70;81.70
26254;DHT22;53339;51.378;0.094;2023-04-03T09:25:25;8.80;81.80
26254;DHT22;53339;51.378;0.094;2023-04-03T09:28:01;9.00;81.60
26254;DHT22;53339;51.378;0.094;2023-04-03T09:30:38;9.10;81.00
26254;DHT22;53339;51.378;0.094;2023-04-03T09:33:09;9.30;81.10
26254;DHT22;53339;51.378;0.094;2023-04-03T09:35:42;9.40;80.70
26254;DHT22;53339;51.378;0.094;2023-04-03T09:38:21;9.50;80.70
26254;DHT22;53339;51.378;0.094;2023-04-03T09:41:13;9.60;79.40
26254;DHT22;53339;51.378;0.094;2023-04-03T09:43:53;9.60;79.80
26254;DHT22;53339;51.378;0.094;2023-04-03T09:46:32;9.60;80.00
26254;DHT22;53339;51.378;0.094;2023-04-03T09:49:04;9.60;79.90
26254;DHT22;53339;51.378;0.094;2023-04-03T09:51:37;9.60;79.30
26254;DHT22;53339;51.378;0.094;2023-04-03T09:57:05;9.70;79.60
26254;DHT22;53339;51.378;0.094;2023-04-03T10:04:53;10.00;78.90
26254;DHT22;53339;51.378;0.094;2023-04-03T10:07:39;10.10;78.80
26254;DHT22;53339;51.378;0.094;2023-04-03T10:10:19;10.20;78.20
26254;DHT22;53339;51.378;0.094;2023-04-03T10:13:34;10.20;78.10
26254;DHT22;53339;51.378;0.094;2023-04-03T10:15:44;10.30;77.80
26254;DHT22;53339;51.378;0.094;2023-04-03T10:21:40;10.40;77.30
26254;DHT22;53339;51.378;0.094;2023-04-03T10:24:21;10.40;77.90
26254;DHT22;53339;51.378;0.094;2023-04-03T10:27:10;10.40;77.50
26254;DHT22;53339;51.378;0.094;2023-04-03T10:29:49;10.40;77.00
26254;DHT22;53339;51.378;0.094;2023-04-03T10:32:33;10.30;76.90
26254;DHT22;53339;51.378;0.094;2023-04-03T10:35:18;10.40;76.60
26254;DHT22;53339;51.378;0.094;2023-04-03T10:37:55;10.40;76.70
26254;DHT22;53339;51.378;0.094;2023-04-03T10:40:29;10.40;76.00
26254;DHT22;53339;51.378;0.094;2023-04-03T10:45:53;10.60;77.20
26254;DHT22;53339;51.378;0.094;2023-04-03T10:51:43;10.70;74.90
26254;DHT22;53339;51.378;0.094;2023-04-03T10:54:25;10.70;74.20
26254;DHT22;53339;51.378;0.094;2023-04-03T10:56:56;10.80;74.90
26254;DHT22;53339;51.378;0.094;2023-04-03T10:59:51;10.90;74.10
26254;DHT22;53339;51.378;0.094;2023-04-03T11:05:42;11.00;73.50
26254;DHT22;53339;51.378;0.094;2023-04-03T11:11:09;11.30;72.20
26254;DHT22;53339;51.378;0.094;2023-04-03T11:13:58;11.40;72.40
26254;DHT22;53339;51.378;0.094;2023-04-03T11:16:33;11.60;71.70
26254;DHT22;53339;51.378;0.094;2023-04-03T11:19:22;11.70;69.60
26254;DHT22;53339;51.378;0.094;2023-04-03T11:22:19;11.60;68.70
26254;DHT22;53339;51.378;0.094;2023-04-03T11:25:13;11.60;68.60
26254;DHT22;53339;51.378;0.094;2023-04-03T11:27:47;11.60;69.60
26254;DHT22;53339;51.378;0.094;2023-04-03T11:30:21;11.70;68.10
26254;DHT22;53339;51.378;0.094;2023-04-03T11:36:07;11.90;68.40
26254;DHT22;53339;51.378;0.094;2023-04-03T11:38:54;11.90;68.50
26254;DHT22;53339;51.378;0.094;2023-04-03T11:41:29;11.90;67.30
26254;DHT22;53339;51.378;0.094;2023-04-03T11:46:59;12.00;67.70
26254;DHT22;53339;51.378;0.094;2023-04-03T11:49:56;12.00;66.50
26254;DHT22;53339;51.378;0.094;2023-04-03T12:00:51;11.90;67.50
26254;DHT22;53339;51.378;0.094;2023-04-03T12:08:28;11.80;67.40
26254;DHT22;53339;51.378;0.094;2023-04-03T12:16:33;11.80;66.90
26254;DHT22;53339;51.378;0.094;2023-04-03T12:22:15;12.00;67.00
26254;DHT22;53339;51.378;0.094;2023-04-03T12:24:48;12.20;67.00
26254;DHT22;53339;51.378;0.094;2023-04-03T12:27:30;12.30;67.10
26254;DHT22;53339;51.378;0.094;2023-04-03T12:33:02;12.60;64.20
26254;DHT22;53339;51.378;0.094;2023-04-03T12:35:56;12.60;63.10
26254;DHT22;53339;51.378;0.094;2023-04-03T12:39:03;12.70;63.70
26254;DHT22;53339;51.378;0.094;2023-04-03T12:44:35;12.70;62.30
26254;DHT22;53339;51.378;0.094;2023-04-03T12:47:35;13.20;61.80
26254;DHT22;53339;51.378;0.094;2023-04-03T12:50:36;13.70;59.70
26254;DHT22;53339;51.378;0.094;2023-04-03T12:53:27;14.50;57.60
26254;DHT22;53339;51.378;0.094;2023-04-03T12:56:28;15.10;57.00
26254;DHT22;53339;51.378;0.094;2023-04-03T12:59:18;15.80;57.10
26254;DHT22;53339;51.378;0.094;2023-04-03T13:01:58;16.20;55.00
26254;DHT22;53339;51.378;0.094;2023-04-03T13:04:29;16.80;57.80
26254;DHT22;53339;51.378;0.094;2023-04-03T13:06:58;17.30;57.40
26254;DHT22;53339;51.378;0.094;2023-04-03T13:09:30;17.70;54.20
26254;DHT22;53339;51.378;0.094;2023-04-03T13:12:14;18.00;56.30
26254;DHT22;53339;51.378;0.094;2023-04-03T13:15:11;18.30;56.10
26254;DHT22;53339;51.378;0.094;2023-04-03T13:17:42;18.70;55.00
26254;DHT22;53339;51.378;0.094;2023-04-03T13:20:23;19.10;53.60
26254;DHT22;53339;51.378;0.094;2023-04-03T13:23:28;19.20;53.20
26254;DHT22;53339;51.378;0.094;2023-04-03T13:25:48;19.40;53.60
26254;DHT22;53339;51.378;0.094;2023-04-03T13:28:23;19.60;53.60
26254;DHT22;53339;51.378;0.094;2023-04-03T13:36:37;19.90;51.80
26254;DHT22;53339;51.378;0.094;2023-04-03T13:41:51;20.20;49.10
26254;DHT22;53339;51.378;0.094;2023-04-03T13:46:54;20.00;49.20
26254;DHT22;53339;51.378;0.094;2023-04-03T13:51:57;20.10;47.60
26254;DHT22;53339;51.378;0.094;2023-04-03T13:54:37;20.30;47.90
26254;DHT22;53339;51.378;0.094;2023-04-03T13:57:14;20.60;48.60
26254;DHT22;53339;51.378;0.094;2023-04-03T13:59:43;21.00;46.60
26254;DHT22;53339;51.378;0.094;2023-04-03T14:02:32;21.20;46.80
26254;DHT22;53339;51.378;0.094;2023-04-03T14:05:01;21.50;46.00
26254;DHT22;53339;51.378;0.094;2023-04-03T14:07:31;21.90;46.10
26254;DHT22;53339;51.378;0.094;2023-04-03T14:09:59;22.20;45.10
26254;DHT22;53339;51.378;0.094;2023-04-03T14:12:40;22.30;44.70
26254;DHT22;53339;51.378;0.094;2023-04-03T14:15:23;22.50;44.40
26254;DHT22;53339;51.378;0.094;2023-04-03T14:17:54;22.70;42.80
26254;DHT22;53339;51.378;0.094;2023-04-03T14:20:26;22.70;41.00
26254;DHT22;53339;51.378;0.094;2023-04-03T14:22:58;22.50;40.00
26254;DHT22;53339;51.378;0.094;2023-04-03T14:25:32;22.50;42.50
26254;DHT22;53339;51.378;0.094;2023-04-03T14:28:00;22.40;41.30
26254;DHT22;53339;51.378;0.094;2023-04-03T14:30:33;22.40;40.60
26254;DHT22;53339;51.378;0.094;2023-04-03T14:33:03;22.20;40.60
26254;DHT22;53339;51.378;0.094;2023-04-03T14:35:32;22.20;41.10
26254;DHT22;53339;51.378;0.094;2023-04-03T14:38:01;22.40;42.40
26254;DHT22;53339;51.378;0.094;2023-04-03T14:40:33;22.50;41.40
26254;DHT22;53339;51.378;0.094;2023-04-03T14:43:05;22.70;42.20
26254;DHT22;53339;51.378;0.094;2023-04-03T14:45:33;23.10;41.80
26254;DHT22;53339;51.378;0.094;2023-04-03T14:48:03;23.40;42.10
26254;DHT22;53339;51.378;0.094;2023-04-03T14:50:32;23.60;40.70
26254;DHT22;53339;51.378;0.094;2023-04-03T14:53:00;23.30;39.20
26254;DHT22;53339;51.378;0.094;2023-04-03T14:55:29;23.30;39.80
26254;DHT22;53339;51.378;0.094;2023-04-03T14:57:57;23.20;40.10
26254;DHT22;53339;51.378;0.094;2023-04-03T15:00:30;23.30;39.50
26254;DHT22;53339;51.378;0.094;2023-04-03T15:02:59;23.30;40.10
26254;DHT22;53339;51.378;0.094;2023-04-03T15:05:28;23.30;39.80
26254;DHT22;53339;51.378;0.094;2023-04-03T15:08:00;23.40;39.70
26254;DHT22;53339;51.378;0.094;2023-04-03T15:10:30;23.60;38.20
26254;DHT22;53339;51.378;0.094;2023-04-03T15:12:58;23.40;37.60
26254;DHT22;53339;51.378;0.094;2023-04-03T15:15:29;23.30;38.90
26254;DHT22;53339;51.378;0.094;2023-04-03T15:17:57;23.40;39.00
26254;DHT22;53339;51.378;0.094;2023-04-03T15:20:27;23.40;38.10
26254;DHT22;53339;51.378;0.094;2023-04-03T15:23:04;23.40;38.50
26254;DHT22;53339;51.378;0.094;2023-04-03T15:25:34;23.50;37.90
26254;DHT22;53339;51.378;0.094;2023-04-03T15:28:02;23.50;37.80
26254;DHT22;53339;51.378;0.094;2023-04-03T15:30:31;23.50;37.30
26254;DHT22;53339;51.378;0.094;2023-04-03T15:33:06;23.30;37.70
26254;DHT22;53339;51.378;0.094;2023-04-03T15:35:37;23.20;37.40
26254;DHT22;53339;51.378;0.094;2023-04-03T15:38:12;23.20;37.20
26254;DHT22;53339;51.378;0.094;2023-04-03T15:40:41;23.20;36.70
26254;DHT22;53339;51.378;0.094;2023-04-03T15:43:11;23.10;37.00
26254;DHT22;53339;51.378;0.094;2023-04-03T15:45:39;23.10;36.50
26254;DHT22;53339;51.378;0.094;2023-04-03T15:48:09;23.10;36.70
26254;DHT22;53339;51.378;0.094;2023-04-03T15:50:37;23.10;36.00
26254;DHT22;53339;51.378;0.094;2023-04-03T15:53:05;23.10;36.10
26254;DHT22;53339;51.378;0.094;2023-04-03T15:55:35;23.00;35.60
26254;DHT22;53339;51.378;0.094;2023-04-03T15:58:03;22.90;35.40
26254;DHT22;53339;51.378;0.094;2023-04-03T16:00:31;22.70;34.60
26254;DHT22;53339;51.378;0.094;2023-04-03T16:03:06;22.60;36.20
26254;DHT22;53339;51.378;0.094;2023-04-03T16:05:37;22.60;34.80
26254;DHT22;53339;51.378;0.094;2023-04-03T16:08:06;22.40;35.70
26254;DHT22;53339;51.378;0.094;2023-04-03T16:10:36;22.30;36.00
26254;DHT22;53339;51.378;0.094;2023-04-03T16:13:05;22.20;36.40
26254;DHT22;53339;51.378;0.094;2023-04-03T16:15:34;22.30;36.80
26254;DHT22;53339;51.378;0.094;2023-04-03T16:18:03;22.20;36.30
26254;DHT22;53339;51.378;0.094;2023-04-03T16:20:33;21.80;36.80
26254;DHT22;53339;51.378;0.094;2023-04-03T16:23:02;20.80;37.50
26254;DHT22;53339;51.378;0.094;2023-04-03T16:25:30;19.40;38.20
26254;DHT22;53339;51.378;0.094;2023-04-03T16:27:59;17.90;39.30
26254;DHT22;53339;51.378;0.094;2023-04-03T16:30:29;16.60;40.30
26254;DHT22;53339;51.378;0.094;2023-04-03T16:32:58;15.30;41.90
26254;DHT22;53339;51.378;0.094;2023-04-03T16:35:26;14.40;43.50
26254;DHT22;53339;51.378;0.094;2023-04-03T16:37:54;13.70;44.70
26254;DHT22;53339;51.378;0.094;2023-04-03T16:40:25;13.30;45.50
26254;DHT22;53339;51.378;0.094;2023-04-03T16:42:53;12.80;46.30
26254;DHT22;53339;51.378;0.094;2023-04-03T16:45:21;12.50;47.10
26254;DHT22;53339;51.378;0.094;2023-04-03T16:47:48;12.20;47.60
26254;DHT22;53339;51.378;0.094;2023-04-03T16:50:16;11.90;48.10
26254;DHT22;53339;51.378;0.094;2023-04-03T16:52:46;11.70;48.70
26254;DHT22;53339;51.378;0.094;2023-04-03T16:55:14;11.30;49.20
26254;DHT22;53339;51.378;0.094;2023-04-03T16:57:42;11.20;49.70
26254;DHT22;53339;51.378;0.094;2023-04-03T17:00:11;11.00;50.00
26254;DHT22;53339;51.378;0.094;2023-04-03T17:02:39;10.80;50.30
26254;DHT22;53339;51.378;0.094;2023-04-03T17:05:08;10.60;50.70
26254;DHT22;53339;51.378;0.094;2023-04-03T17:07:36;10.50;51.00
26254;DHT22;53339;51.378;0.094;2023-04-03T17:10:07;10.40;51.30
26254;DHT22;53339;51.378;0.094;2023-04-03T17:12:35;10.20;51.50
26254;DHT22;53339;51.378;0.094;2023-04-03T17:15:03;10.10;51.90
26254;DHT22;53339;51.378;0.094;2023-04-03T17:17:37;10.00;52.20
26254;DHT22;53339;51.378;0.094;2023-04-03T17:20:06;9.90;52.30
26254;DHT22;53339;51.378;0.094;2023-04-03T17:22:35;9.80;52.50
26254;DHT22;53339;51.378;0.094;2023-04-03T17:25:05;9.70;52.70
26254;DHT22;53339;51.378;0.094;2023-04-03T17:27:33;9.60;53.30
26254;DHT22;53339;51.378;0.094;2023-04-03T17:30:05;9.50;53.50
26254;DHT22;53339;51.378;0.094;2023-04-03T17:32:34;9.40;53.70
26254;DHT22;53339;51.378;0.094;2023-04-03T17:35:02;9.40;54.00
26254;DHT22;53339;51.378;0.094;2023-04-03T17:37:30;9.30;54.30
26254;DHT22;53339;51.378;0.094;2023-04-03T17:39:58;9.30;54.50
26254;DHT22;53339;51.378;0.094;2023-04-03T17:42:30;9.20;54.70
26254;DHT22;53339;51.378;0.094;2023-04-03T17:44:59;9.10;55.10
26254;DHT22;53339;51.378;0.094;2023-04-03T17:47:27;9.10;55.30
26254;DHT22;53339;51.378;0.094;2023-04-03T17:49:55;9.00;55.50
26254;DHT22;53339;51.378;0.094;2023-04-03T17:52:27;8.90;55.80
26254;DHT22;53339;51.378;0.094;2023-04-03T17:55:00;8.90;56.00
26254;DHT22;53339;51.378;0.094;2023-04-03T17:57:32;8.80;56.30
26254;DHT22;53339;51.378;0.094;2023-04-03T18:00:02;8.80;56.60